Time;durP1;ratioP1;P1;durP2;ratioP2;P2;SDS_P1;SDS_P2;PMS_P1;PMS_P2;Temp;Humidity;BMP_temperature;BMP_pressure;BME280_temperature;BME280_humidity;BME280_pressure;Samples;Min_cycle;Max_cycle;Signal;HPM_P1;HPM_P2
2021/03/29 00:00:48;;;;;;;5.97;2.75;;;;;;;;;;4976617;28;20114;-73
2021/03/29 00:03:15;;;;;;;6.03;2.45;;;;;;;;;;4976902;28;20035;-74
2021/03/29 00:05:41;;;;;;;7.53;2.60;;;;;;;;;;4994226;28;20057;-73
2021/03/29 00:08:07;;;;;;;7.28;2.40;;;;;;;;;;4976918;28;20026;-73
2021/03/29 00:10:34;;;;;;;7.07;2.70;;;;;;;;;;4994338;28;20081;-74
2021/03/29 00:13:01;;;;;;;7.20;3.00;;;;;;;;;;4994125;28;20033;-73
2021/03/29 00:15:29;;;;;;;6.65;2.83;;;;;;;;;;4976649;28;20018;-74
2021/03/29 00:17:55;;;;;;;7.28;3.00;;;;;;;;;;4976458;28;20026;-73
2021/03/29 00:20:26;;;;;;;5.60;2.60;;;;;;;;;;4994031;28;20088;-73
2021/03/29 00:22:53;;;;;;;7.28;2.92;;;;;;;;;;4994244;28;20542;-73
2021/03/29 00:25:20;;;;;;;5.82;2.33;;;;;;;;;;4994117;28;20093;-74
2021/03/29 00:27:46;;;;;;;6.75;2.65;;;;;;;;;;4976853;28;20030;-74
2021/03/29 00:30:14;;;;;;;6.43;2.70;;;;;;;;;;4994438;28;20027;-74
2021/03/29 00:32:43;;;;;;;8.90;2.60;;;;;;;;;;4993749;28;20038;-74
2021/03/29 00:35:10;;;;;;;4.55;2.25;;;;;;;;;;4993435;28;20101;-73
2021/03/29 00:37:37;;;;;;;7.55;2.60;;;;;;;;;;4975860;28;20030;-74
2021/03/29 00:40:04;;;;;;;6.13;2.80;;;;;;;;;;4993532;28;20094;-73
2021/03/29 00:42:31;;;;;;;6.60;2.80;;;;;;;;;;4974997;28;20038;-73
2021/03/29 00:44:57;;;;;;;6.85;3.00;;;;;;;;;;4993559;28;20049;-74
2021/03/29 00:47:23;;;;;;;7.75;2.83;;;;;;;;;;4975775;28;20034;-74
2021/03/29 00:49:50;;;;;;;6.28;2.65;;;;;;;;;;4975723;28;20030;-74
2021/03/29 00:52:16;;;;;;;5.72;2.50;;;;;;;;;;4993123;28;20133;-74
2021/03/29 00:54:43;;;;;;;5.97;2.92;;;;;;;;;;4975754;28;20045;-74
2021/03/29 00:57:10;;;;;;;6.13;2.20;;;;;;;;;;4992629;28;20022;-74
2021/03/29 00:59:36;;;;;;;5.90;2.20;;;;;;;;;;4993493;28;20026;-74
2021/03/29 01:02:03;;;;;;;7.13;2.75;;;;;;;;;;4993543;28;20542;-74
2021/03/29 01:04:29;;;;;;;4.60;2.15;;;;;;;;;;4976135;28;20553;-74
2021/03/29 01:06:55;;;;;;;5.28;2.22;;;;;;;;;;4993656;28;20113;-74
2021/03/29 01:09:23;;;;;;;6.30;2.30;;;;;;;;;;4993529;28;20042;-74
2021/03/29 01:11:54;;;;;;;6.75;2.15;;;;;;;;;;4993496;28;20156;-74
2021/03/29 01:14:20;;;;;;;6.10;2.10;;;;;;;;;;4992998;28;20038;-74
2021/03/29 01:16:48;;;;;;;5.05;2.17;;;;;;;;;;4992925;28;20399;-74
2021/03/29 01:19:25;;;;;;;5.13;2.08;;;;;;;;;;4992978;28;20023;-74
2021/03/29 01:21:58;;;;;;;5.60;2.28;;;;;;;;;;4992460;28;20597;-74
2021/03/29 01:24:30;;;;;;;5.72;2.17;;;;;;;;;;4971261;28;20053;-74
2021/03/29 01:26:56;;;;;;;7.30;2.60;;;;;;;;;;4991442;28;20522;-74
2021/03/29 01:29:30;;;;;;;6.05;2.38;;;;;;;;;;4992727;28;20030;-74
2021/03/29 01:31:56;;;;;;;5.60;2.15;;;;;;;;;;4992586;28;20022;-74
2021/03/29 01:34:22;;;;;;;5.68;2.30;;;;;;;;;;4992783;28;20045;-74
2021/03/29 01:36:48;;;;;;;4.47;1.90;;;;;;;;;;4975353;28;20023;-74
2021/03/29 01:39:15;;;;;;;5.78;2.33;;;;;;;;;;4992997;28;20072;-74
2021/03/29 01:41:42;;;;;;;5.75;2.17;;;;;;;;;;4992794;28;20026;-74
2021/03/29 01:44:08;;;;;;;6.35;2.45;;;;;;;;;;4992793;28;20030;-74
2021/03/29 01:46:34;;;;;;;5.88;2.33;;;;;;;;;;4992742;28;20027;-74
2021/03/29 01:49:01;;;;;;;4.20;1.85;;;;;;;;;;4992708;28;20026;-74
2021/03/29 01:51:28;;;;;;;5.22;2.38;;;;;;;;;;4974970;28;20022;-74
2021/03/29 01:53:54;;;;;;;7.78;2.65;;;;;;;;;;4974673;28;20015;-74
2021/03/29 01:56:20;;;;;;;3.88;1.83;;;;;;;;;;4975228;28;20046;-74
2021/03/29 01:58:46;;;;;;;4.88;1.88;;;;;;;;;;4975580;28;20022;-74
2021/03/29 02:01:12;;;;;;;6.47;2.05;;;;;;;;;;4992979;28;20603;-74
2021/03/29 02:03:40;;;;;;;7.05;1.85;;;;;;;;;;4993017;28;20073;-74
2021/03/29 02:06:07;;;;;;;4.78;1.92;;;;;;;;;;4992431;28;20053;-74
2021/03/29 02:08:34;;;;;;;5.20;1.60;;;;;;;;;;4990454;28;20399;-74
2021/03/29 02:11:00;;;;;;;7.00;2.28;;;;;;;;;;4991060;28;20027;-73
2021/03/29 02:13:28;;;;;;;7.93;2.22;;;;;;;;;;4973981;28;20056;-74
2021/03/29 02:16:13;;;;;;;4.70;1.73;;;;;;;;;;4974281;28;20058;-74
2021/03/29 02:18:41;;;;;;;4.90;2.10;;;;;;;;;;4991787;28;20148;-74
2021/03/29 02:21:19;;;;;;;4.72;2.08;;;;;;;;;;4974596;28;20029;-74
2021/03/29 02:23:49;;;;;;;5.45;2.28;;;;;;;;;;4974414;28;20503;-74
2021/03/29 02:26:17;;;;;;;8.35;2.25;;;;;;;;;;4992188;28;20649;-75
2021/03/29 02:28:44;;;;;;;5.55;2.20;;;;;;;;;;4992137;28;20034;-73
2021/03/29 02:31:10;;;;;;;5.63;2.00;;;;;;;;;;4992194;28;20022;-74
2021/03/29 02:33:36;;;;;;;4.43;2.00;;;;;;;;;;4992111;28;20026;-74
2021/03/29 02:36:03;;;;;;;5.85;2.10;;;;;;;;;;4992493;28;20038;-74
2021/03/29 02:38:29;;;;;;;4.68;1.98;;;;;;;;;;4992794;28;20530;-74
2021/03/29 02:40:56;;;;;;;5.03;1.95;;;;;;;;;;4992664;28;20034;-74
2021/03/29 02:43:23;;;;;;;4.60;2.00;;;;;;;;;;4992544;28;20034;-75
2021/03/29 02:46:09;;;;;;;4.30;1.80;;;;;;;;;;4992554;28;20431;-74
2021/03/29 02:48:38;;;;;;;5.55;1.80;;;;;;;;;;4992424;28;20026;-74
2021/03/29 02:51:07;;;;;;;3.88;1.80;;;;;;;;;;4992504;28;20014;-74
2021/03/29 02:53:35;;;;;;;4.45;1.95;;;;;;;;;;4992528;28;20057;-74
2021/03/29 02:56:02;;;;;;;4.68;2.20;;;;;;;;;;4992510;28;20022;-75
2021/03/29 02:58:29;;;;;;;4.18;1.85;;;;;;;;;;4975074;28;20014;-74
2021/03/29 03:00:56;;;;;;;4.72;1.85;;;;;;;;;;4992642;28;20019;-74
2021/03/29 03:03:22;;;;;;;4.88;1.95;;;;;;;;;;4992497;28;20038;-74
2021/03/29 03:05:50;;;;;;;5.82;1.95;;;;;;;;;;4994858;28;20054;-74
2021/03/29 03:08:17;;;;;;;4.50;1.92;;;;;;;;;;4996203;28;20057;-74
2021/03/29 03:10:44;;;;;;;6.07;2.05;;;;;;;;;;4996040;28;20053;-74
2021/03/29 03:13:11;;;;;;;4.63;2.00;;;;;;;;;;4996113;28;20096;-74
2021/03/29 03:15:38;;;;;;;4.13;1.88;;;;;;;;;;4996234;28;20033;-74
2021/03/29 03:18:05;;;;;;;5.25;1.92;;;;;;;;;;4995863;28;20387;-74
2021/03/29 03:20:31;;;;;;;3.88;1.70;;;;;;;;;;4978548;28;20026;-74
2021/03/29 03:23:03;;;;;;;4.85;1.88;;;;;;;;;;4995921;28;20034;-74
2021/03/29 03:25:31;;;;;;;6.85;1.98;;;;;;;;;;4991494;28;20045;-74
2021/03/29 03:27:58;;;;;;;4.53;1.95;;;;;;;;;;4977879;28;20026;-74
2021/03/29 03:30:26;;;;;;;5.40;2.17;;;;;;;;;;4995626;28;20023;-74
2021/03/29 03:32:52;;;;;;;4.63;1.90;;;;;;;;;;4978253;28;20110;-74
2021/03/29 03:35:19;;;;;;;5.57;2.10;;;;;;;;;;4978250;28;20145;-74
2021/03/29 03:37:47;;;;;;;4.22;1.83;;;;;;;;;;4995791;28;20438;-74
2021/03/29 03:40:14;;;;;;;5.47;2.00;;;;;;;;;;4978181;28;20055;-74
2021/03/29 03:42:41;;;;;;;3.67;1.60;;;;;;;;;;4977846;28;20368;-74
2021/03/29 03:45:09;;;;;;;5.05;2.08;;;;;;;;;;4978024;28;20026;-74
2021/03/29 03:47:36;;;;;;;4.50;2.05;;;;;;;;;;4978092;28;20199;-74
2021/03/29 03:50:03;;;;;;;4.72;1.83;;;;;;;;;;4995663;28;20022;-74
2021/03/29 03:52:29;;;;;;;5.75;1.80;;;;;;;;;;4995608;28;20105;-74
2021/03/29 03:54:56;;;;;;;5.55;1.85;;;;;;;;;;4978020;28;20023;-74
2021/03/29 03:57:22;;;;;;;5.15;1.90;;;;;;;;;;4977944;28;20191;-74
2021/03/29 03:59:48;;;;;;;5.25;1.98;;;;;;;;;;4977856;28;20036;-74
2021/03/29 04:02:14;;;;;;;4.40;1.98;;;;;;;;;;4989785;28;20543;-74
2021/03/29 04:04:41;;;;;;;5.65;2.10;;;;;;;;;;4995349;28;20034;-74
2021/03/29 04:07:07;;;;;;;4.35;1.88;;;;;;;;;;4995040;28;20029;-74
2021/03/29 04:09:51;;;;;;;6.45;2.05;;;;;;;;;;4977780;28;20022;-74
2021/03/29 04:12:17;;;;;;;5.38;2.13;;;;;;;;;;4977610;28;20030;-74
2021/03/29 04:14:43;;;;;;;4.60;1.92;;;;;;;;;;4977526;28;20481;-74
2021/03/29 04:17:09;;;;;;;5.25;2.20;;;;;;;;;;4977673;28;20468;-74
2021/03/29 04:19:35;;;;;;;5.75;2.20;;;;;;;;;;4995119;28;20085;-74
2021/03/29 04:22:02;;;;;;;4.65;2.10;;;;;;;;;;4977289;28;20030;-74
2021/03/29 04:24:28;;;;;;;5.47;2.20;;;;;;;;;;4994761;28;20049;-74
2021/03/29 04:26:54;;;;;;;4.38;2.10;;;;;;;;;;4994588;28;20168;-74
2021/03/29 04:29:20;;;;;;;6.13;2.17;;;;;;;;;;4994924;28;20034;-74
2021/03/29 04:31:47;;;;;;;5.00;2.15;;;;;;;;;;4994790;28;20105;-74
2021/03/29 04:34:13;;;;;;;5.63;2.00;;;;;;;;;;4977447;28;20050;-74
2021/03/29 04:36:39;;;;;;;5.30;2.17;;;;;;;;;;4994744;28;20077;-74
2021/03/29 04:39:06;;;;;;;4.68;2.00;;;;;;;;;;4977245;28;20022;-75
2021/03/29 04:41:32;;;;;;;5.22;1.90;;;;;;;;;;4977044;28;20491;-74
2021/03/29 04:43:58;;;;;;;5.20;1.95;;;;;;;;;;4994602;28;20438;-74
2021/03/29 04:46:24;;;;;;;4.88;2.10;;;;;;;;;;4994493;28;20538;-74
2021/03/29 04:48:50;;;;;;;5.32;1.80;;;;;;;;;;4977018;28;20053;-74
2021/03/29 04:51:16;;;;;;;5.13;2.03;;;;;;;;;;4994241;28;20450;-74
2021/03/29 04:53:42;;;;;;;5.05;2.25;;;;;;;;;;4976468;28;20033;-74
2021/03/29 04:56:08;;;;;;;4.93;1.95;;;;;;;;;;4994365;28;20022;-74
2021/03/29 04:58:34;;;;;;;5.70;2.30;;;;;;;;;;4994266;28;20023;-74
2021/03/29 05:01:00;;;;;;;5.63;2.47;;;;;;;;;;4976726;28;20026;-74
2021/03/29 05:03:26;;;;;;;7.15;2.28;;;;;;;;;;4976720;28;20494;-74
2021/03/29 05:05:52;;;;;;;4.20;2.00;;;;;;;;;;4994104;28;20685;-73
2021/03/29 05:08:18;;;;;;;4.53;2.00;;;;;;;;;;4994074;28;20113;-74
2021/03/29 05:10:45;;;;;;;4.20;1.75;;;;;;;;;;4976518;28;20023;-74
2021/03/29 05:13:11;;;;;;;5.03;2.00;;;;;;;;;;4993791;28;20033;-75
2021/03/29 05:15:37;;;;;;;4.95;2.28;;;;;;;;;;4993841;28;20027;-74
2021/03/29 05:18:03;;;;;;;5.07;2.10;;;;;;;;;;4993732;28;20022;-74
2021/03/29 05:20:29;;;;;;;7.15;2.13;;;;;;;;;;4993927;28;20483;-74
2021/03/29 05:22:55;;;;;;;5.47;2.30;;;;;;;;;;4976187;28;20092;-74
2021/03/29 05:25:21;;;;;;;5.13;2.25;;;;;;;;;;4993614;28;20084;-74
2021/03/29 05:27:47;;;;;;;8.00;2.58;;;;;;;;;;4992958;28;20042;-74
2021/03/29 05:30:14;;;;;;;5.43;2.38;;;;;;;;;;4993706;28;20026;-74
2021/03/29 05:32:40;;;;;;;6.20;2.70;;;;;;;;;;4976004;28;20479;-74
2021/03/29 05:35:06;;;;;;;6.20;2.10;;;;;;;;;;4992101;28;20117;-75
2021/03/29 05:37:32;;;;;;;6.45;2.20;;;;;;;;;;4992034;28;20424;-74
2021/03/29 05:39:59;;;;;;;6.68;2.17;;;;;;;;;;4975478;28;20033;-75
2021/03/29 05:42:26;;;;;;;6.35;2.22;;;;;;;;;;4992931;28;20162;-74
2021/03/29 05:44:53;;;;;;;6.57;2.20;;;;;;;;;;4993263;28;20034;-74
2021/03/29 05:47:20;;;;;;;6.05;2.15;;;;;;;;;;4992317;28;20030;-74
2021/03/29 05:49:46;;;;;;;5.68;2.35;;;;;;;;;;4992544;28;20014;-74
2021/03/29 05:52:12;;;;;;;6.20;2.33;;;;;;;;;;4992234;28;20474;-74
2021/03/29 05:54:39;;;;;;;6.78;2.28;;;;;;;;;;4992631;28;20101;-74
2021/03/29 05:57:05;;;;;;;5.78;2.33;;;;;;;;;;4975365;28;20505;-75
2021/03/29 05:59:40;;;;;;;6.00;2.53;;;;;;;;;;4993104;28;20034;-74
2021/03/29 06:02:06;;;;;;;11.05;2.95;;;;;;;;;;4987344;28;20037;-74
2021/03/29 06:04:46;;;;;;;4.63;2.20;;;;;;;;;;4975432;28;20049;-74
2021/03/29 06:07:15;;;;;;;6.70;2.28;;;;;;;;;;4974937;28;20542;-75
2021/03/29 06:09:42;;;;;;;4.70;2.30;;;;;;;;;;4974842;28;20139;-75
2021/03/29 06:12:09;;;;;;;6.28;2.42;;;;;;;;;;4992144;28;20026;-74
2021/03/29 06:14:35;;;;;;;6.88;2.83;;;;;;;;;;4991630;28;20054;-75
2021/03/29 06:17:11;;;;;;;5.95;2.67;;;;;;;;;;4992037;28;20033;-74
2021/03/29 06:19:37;;;;;;;7.05;2.80;;;;;;;;;;4974825;28;20050;-74
2021/03/29 06:22:07;;;;;;;6.97;2.75;;;;;;;;;;4974683;28;20058;-75
2021/03/29 06:24:53;;;;;;;9.35;3.25;;;;;;;;;;4991920;28;20053;-74
2021/03/29 06:27:20;;;;;;;8.10;2.95;;;;;;;;;;4984659;28;20430;-74
2021/03/29 06:29:46;;;;;;;8.80;3.38;;;;;;;;;;4974632;28;20022;-75
2021/03/29 06:32:17;;;;;;;9.43;2.90;;;;;;;;;;4992160;28;20026;-73
2021/03/29 06:34:43;;;;;;;8.10;3.40;;;;;;;;;;4992659;28;20061;-74
2021/03/29 06:37:09;;;;;;;8.20;3.00;;;;;;;;;;4992748;28;20018;-75
2021/03/29 06:39:36;;;;;;;12.88;3.33;;;;;;;;;;4975783;28;20109;-73
2021/03/29 06:42:03;;;;;;;8.82;3.70;;;;;;;;;;4996793;28;20572;-74
2021/03/29 06:44:31;;;;;;;7.00;3.15;;;;;;;;;;4991196;28;20089;-75
2021/03/29 06:47:13;;;;;;;10.50;3.38;;;;;;;;;;4996650;28;20412;-74
2021/03/29 06:49:47;;;;;;;11.75;3.95;;;;;;;;;;4996661;28;20189;-74
2021/03/29 06:52:23;;;;;;;7.13;3.42;;;;;;;;;;4996595;28;20072;-74
2021/03/29 06:54:49;;;;;;;11.23;3.35;;;;;;;;;;4996297;28;20403;-74
2021/03/29 06:57:26;;;;;;;6.40;3.13;;;;;;;;;;4996521;28;20109;-74
2021/03/29 06:59:52;;;;;;;9.90;3.78;;;;;;;;;;4996193;28;20074;-74
2021/03/29 07:02:35;;;;;;;9.10;3.42;;;;;;;;;;4978564;28;20130;-74
2021/03/29 07:05:01;;;;;;;7.70;3.38;;;;;;;;;;4978674;28;20018;-75
2021/03/29 07:07:27;;;;;;;10.32;3.38;;;;;;;;;;4978526;28;20022;-74
2021/03/29 07:09:54;;;;;;;10.13;3.08;;;;;;;;;;4996000;28;20386;-74
2021/03/29 07:12:21;;;;;;;8.55;3.35;;;;;;;;;;4995816;28;20450;-75
2021/03/29 07:14:51;;;;;;;11.45;3.35;;;;;;;;;;4978565;28;20023;-74
2021/03/29 07:17:19;;;;;;;8.75;3.13;;;;;;;;;;4976394;28;20494;-75
2021/03/29 07:19:45;;;;;;;8.75;3.65;;;;;;;;;;4976304;28;20019;-75
2021/03/29 07:22:14;;;;;;;10.32;3.13;;;;;;;;;;4988322;28;20037;-74
2021/03/29 07:24:40;;;;;;;9.30;3.28;;;;;;;;;;4995429;28;20043;-75
2021/03/29 07:27:06;;;;;;;8.05;3.38;;;;;;;;;;4995568;28;20015;-73
2021/03/29 07:29:37;;;;;;;14.00;3.35;;;;;;;;;;4995763;28;20022;-75
2021/03/29 07:32:04;;;;;;;7.63;3.10;;;;;;;;;;4995492;28;20022;-75
2021/03/29 07:34:48;;;;;;;7.30;2.90;;;;;;;;;;4995681;28;20022;-74
2021/03/29 07:37:26;;;;;;;5.90;2.60;;;;;;;;;;4977654;28;20026;-75
2021/03/29 07:39:52;;;;;;;9.77;3.10;;;;;;;;;;4994855;28;20168;-75
2021/03/29 07:42:24;;;;;;;7.32;3.00;;;;;;;;;;4995326;28;20046;-74
2021/03/29 07:44:56;;;;;;;7.43;3.03;;;;;;;;;;4977840;28;20398;-75
2021/03/29 07:47:41;;;;;;;11.18;3.80;;;;;;;;;;4976492;28;20495;-72
2021/03/29 07:50:08;;;;;;;8.63;3.30;;;;;;;;;;4993470;28;20551;-71
2021/03/29 07:52:39;;;;;;;11.10;3.13;;;;;;;;;;4994178;28;20046;-72
2021/03/29 07:55:16;;;;;;;7.25;3.13;;;;;;;;;;4976861;28;20022;-72
2021/03/29 07:57:46;;;;;;;8.52;2.95;;;;;;;;;;4976653;28;20022;-72
2021/03/29 08:00:26;;;;;;;8.18;3.17;;;;;;;;;;4994536;28;20029;-72
2021/03/29 08:02:53;;;;;;;13.07;2.80;;;;;;;;;;4994448;28;20038;-72
2021/03/29 08:05:39;;;;;;;7.70;3.45;;;;;;;;;;4976927;28;20022;-72
2021/03/29 08:08:24;;;;;;;8.43;2.67;;;;;;;;;;4994389;28;20030;-72
2021/03/29 08:10:56;;;;;;;7.25;2.75;;;;;;;;;;4994680;28;20031;-72
2021/03/29 08:13:41;;;;;;;8.13;2.33;;;;;;;;;;4976971;28;20110;-72
2021/03/29 08:16:09;;;;;;;7.90;3.30;;;;;;;;;;4976715;28;20035;-72
2021/03/29 08:18:53;;;;;;;6.50;2.83;;;;;;;;;;4994397;28;20023;-72
2021/03/29 08:21:38;;;;;;;5.90;2.60;;;;;;;;;;4994280;28;20027;-72
2021/03/29 08:24:04;;;;;;;8.15;3.10;;;;;;;;;;4957258;28;20042;-72
2021/03/29 08:26:37;;;;;;;5.38;2.53;;;;;;;;;;4974805;28;20058;-72
2021/03/29 08:29:36;;;;;;;5.18;2.40;;;;;;;;;;4974712;28;20026;-76
2021/03/29 08:32:09;;;;;;;5.95;2.63;;;;;;;;;;4931865;28;20043;-73
2021/03/29 08:34:38;;;;;;;6.55;2.72;;;;;;;;;;4974648;28;20098;-72
2021/03/29 08:37:06;;;;;;;6.25;2.38;;;;;;;;;;4974508;28;20065;-72
2021/03/29 08:39:34;;;;;;;10.93;2.70;;;;;;;;;;4957063;28;20475;-72
2021/03/29 08:42:00;;;;;;;7.45;2.92;;;;;;;;;;4974299;28;20034;-72
2021/03/29 08:44:27;;;;;;;7.63;2.88;;;;;;;;;;4974455;28;20050;-72
2021/03/29 08:46:54;;;;;;;5.60;2.63;;;;;;;;;;4974590;28;20027;-72
2021/03/29 08:49:21;;;;;;;6.80;2.65;;;;;;;;;;4983769;28;20033;-71
2021/03/29 08:51:47;;;;;;;10.27;2.42;;;;;;;;;;4993510;28;20030;-76
2021/03/29 08:54:14;;;;;;;7.78;2.92;;;;;;;;;;4993843;28;20022;-75
2021/03/29 08:56:41;;;;;;;5.78;2.47;;;;;;;;;;4993787;28;20498;-75
2021/03/29 08:59:07;;;;;;;6.88;2.42;;;;;;;;;;4993742;28;20542;-73
2021/03/29 09:01:33;;;;;;;18.95;3.25;;;;;;;;;;4992840;28;20022;-74
2021/03/29 09:04:03;;;;;;;6.55;2.35;;;;;;;;;;4991654;28;20034;-74
2021/03/29 09:06:31;;;;;;;6.25;2.67;;;;;;;;;;4975321;28;20018;-73
2021/03/29 09:08:58;;;;;;;6.50;2.65;;;;;;;;;;4993019;28;20026;-74
2021/03/29 09:11:24;;;;;;;5.88;2.42;;;;;;;;;;4992894;28;20038;-78
2021/03/29 09:13:54;;;;;;;5.97;2.22;;;;;;;;;;4992639;28;20026;-72
2021/03/29 09:16:24;;;;;;;5.78;2.22;;;;;;;;;;4992687;28;20030;-71
2021/03/29 09:18:50;;;;;;;5.15;2.15;;;;;;;;;;4975405;28;20026;-73
2021/03/29 09:21:24;;;;;;;6.65;2.40;;;;;;;;;;4992649;28;20050;-71
2021/03/29 09:23:50;;;;;;;7.60;2.33;;;;;;;;;;4992491;28;20044;-75
2021/03/29 09:26:24;;;;;;;7.88;2.22;;;;;;;;;;4992394;28;20495;-69
2021/03/29 09:28:52;;;;;;;6.80;2.17;;;;;;;;;;4974909;28;20043;-72
2021/03/29 09:31:21;;;;;;;6.75;2.20;;;;;;;;;;4992658;28;20019;-74
2021/03/29 09:33:48;;;;;;;6.05;2.13;;;;;;;;;;4992591;28;20026;-73
2021/03/29 09:36:16;;;;;;;7.25;2.10;;;;;;;;;;4992497;28;20092;-72
2021/03/29 09:38:46;;;;;;;6.85;2.40;;;;;;;;;;4992453;28;20127;-74
2021/03/29 09:41:25;;;;;;;4.65;2.20;;;;;;;;;;4975400;28;20031;-72
2021/03/29 09:43:53;;;;;;;10.43;2.35;;;;;;;;;;4992244;28;20042;-71
2021/03/29 09:46:28;;;;;;;5.32;2.08;;;;;;;;;;4992479;28;20026;-71
2021/03/29 09:49:07;;;;;;;5.97;1.80;;;;;;;;;;4992469;28;20030;-72
2021/03/29 09:51:33;;;;;;;5.55;2.00;;;;;;;;;;4992712;28;20101;-75
2021/03/29 09:53:59;;;;;;;5.55;2.20;;;;;;;;;;4992563;28;20073;-77
2021/03/29 09:56:29;;;;;;;5.45;2.03;;;;;;;;;;4974327;28;20026;-74
2021/03/29 09:58:56;;;;;;;4.13;1.75;;;;;;;;;;4992588;28;20026;-74
2021/03/29 10:01:26;;;;;;;3.85;1.73;;;;;;;;;;4992154;28;20050;-66
2021/03/29 10:04:02;;;;;;;5.07;1.85;;;;;;;;;;4991931;28;20078;-73
2021/03/29 10:06:29;;;;;;;7.07;2.03;;;;;;;;;;4991935;28;20495;-71
2021/03/29 10:09:00;;;;;;;5.18;1.83;;;;;;;;;;4992133;28;20048;-72
2021/03/29 10:11:27;;;;;;;7.10;2.00;;;;;;;;;;4992089;28;20506;-72
2021/03/29 10:14:15;;;;;;;4.18;1.80;;;;;;;;;;4974163;28;20044;-71
2021/03/29 10:16:48;;;;;;;4.03;1.58;;;;;;;;;;4992222;28;20109;-74
2021/03/29 10:19:19;;;;;;;5.93;1.55;;;;;;;;;;4974392;28;20638;-73
2021/03/29 10:22:05;;;;;;;5.05;1.60;;;;;;;;;;4991821;28;20031;-74
2021/03/29 10:24:32;;;;;;;3.60;1.58;;;;;;;;;;4991735;28;20043;-76
2021/03/29 10:26:58;;;;;;;5.55;1.67;;;;;;;;;;4992188;28;20454;-72
2021/03/29 10:29:37;;;;;;;4.03;1.50;;;;;;;;;;4992135;28;20088;-73
2021/03/29 10:32:07;;;;;;;4.25;1.70;;;;;;;;;;4974454;28;20514;-73
2021/03/29 10:34:34;;;;;;;4.53;2.08;;;;;;;;;;4974323;28;20073;-74
2021/03/29 10:37:01;;;;;;;5.65;2.08;;;;;;;;;;4991741;28;20019;-73
2021/03/29 10:39:27;;;;;;;5.50;2.10;;;;;;;;;;4991340;28;20019;-73
2021/03/29 10:41:53;;;;;;;4.70;2.20;;;;;;;;;;4991637;28;20070;-73
2021/03/29 10:44:19;;;;;;;4.00;1.80;;;;;;;;;;4991577;28;20633;-72
2021/03/29 10:46:45;;;;;;;4.18;1.70;;;;;;;;;;4974114;28;20061;-77
2021/03/29 10:49:11;;;;;;;6.50;1.58;;;;;;;;;;4974098;28;20500;-72
2021/03/29 10:51:38;;;;;;;5.60;2.00;;;;;;;;;;4991441;28;20030;-73
2021/03/29 10:54:05;;;;;;;3.97;2.05;;;;;;;;;;4991541;28;20022;-71
2021/03/29 10:56:31;;;;;;;3.83;1.80;;;;;;;;;;4991202;28;20077;-72
2021/03/29 10:58:57;;;;;;;5.70;1.80;;;;;;;;;;4973896;28;20030;-73
2021/03/29 11:01:23;;;;;;;6.65;2.10;;;;;;;;;;4991517;28;20034;-74
2021/03/29 11:03:49;;;;;;;3.55;1.60;;;;;;;;;;4973828;28;20372;-73
2021/03/29 11:06:15;;;;;;;3.80;1.88;;;;;;;;;;4973917;28;20026;-71
2021/03/29 11:08:41;;;;;;;3.80;1.70;;;;;;;;;;4991603;28;20023;-70
2021/03/29 11:11:07;;;;;;;8.23;1.52;;;;;;;;;;4991489;28;20559;-72
2021/03/29 11:13:33;;;;;;;3.28;1.50;;;;;;;;;;4991505;28;20018;-72
2021/03/29 11:16:00;;;;;;;6.95;1.70;;;;;;;;;;4991383;28;20065;-72
2021/03/29 11:18:26;;;;;;;6.32;2.08;;;;;;;;;;4973744;28;20080;-73
2021/03/29 11:20:55;;;;;;;3.78;1.63;;;;;;;;;;4990215;28;20031;-73
2021/03/29 11:23:25;;;;;;;5.53;1.80;;;;;;;;;;4973508;28;20042;-73
2021/03/29 11:25:51;;;;;;;4.45;1.67;;;;;;;;;;4971209;28;20101;-73
2021/03/29 11:28:17;;;;;;;3.75;1.40;;;;;;;;;;4973915;28;20050;-73
2021/03/29 11:30:43;;;;;;;6.22;2.13;;;;;;;;;;4974422;28;20054;-72
2021/03/29 11:33:09;;;;;;;4.72;1.73;;;;;;;;;;4975994;28;20099;-72
2021/03/29 11:35:35;;;;;;;4.40;1.60;;;;;;;;;;4976086;28;20035;-72
2021/03/29 11:38:01;;;;;;;4.72;1.52;;;;;;;;;;4975190;28;20050;-72
2021/03/29 11:40:27;;;;;;;3.17;1.40;;;;;;;;;;4973994;28;20447;-69
2021/03/29 11:42:54;;;;;;;4.63;1.58;;;;;;;;;;4960477;28;20036;-71
2021/03/29 11:45:20;;;;;;;5.05;1.38;;;;;;;;;;4955985;28;20053;-75
2021/03/29 11:47:46;;;;;;;5.63;1.55;;;;;;;;;;4956033;28;20031;-72
2021/03/29 11:50:14;;;;;;;4.65;1.60;;;;;;;;;;4956052;28;20034;-70
2021/03/29 11:52:41;;;;;;;3.53;1.50;;;;;;;;;;4956316;28;20102;-75
2021/03/29 11:55:07;;;;;;;3.67;1.38;;;;;;;;;;4982419;28;20023;-74
2021/03/29 11:57:34;;;;;;;3.10;1.30;;;;;;;;;;4974812;28;20019;-72
2021/03/29 12:00:03;;;;;;;3.53;1.52;;;;;;;;;;4974807;28;20042;-72
2021/03/29 12:02:37;;;;;;;4.13;1.50;;;;;;;;;;4974822;28;20043;-74
2021/03/29 12:07:41;;;;;;;4.80;1.65;;;;;;;;;;4974534;28;20461;-76
2021/03/29 12:12:54;;;;;;;4.57;1.40;;;;;;;;;;4975009;28;20057;-74
2021/03/29 12:15:21;;;;;;;4.38;1.50;;;;;;;;;;4973465;28;20500;-76
2021/03/29 12:17:49;;;;;;;9.65;2.85;;;;;;;;;;4975002;28;20161;-72
2021/03/29 12:20:15;;;;;;;2.42;1.08;;;;;;;;;;4974866;28;20022;-70
2021/03/29 12:22:44;;;;;;;3.63;1.20;;;;;;;;;;4973681;28;20542;-72
2021/03/29 12:25:12;;;;;;;2.40;1.10;;;;;;;;;;4984996;28;20064;-72
2021/03/29 12:27:39;;;;;;;3.60;1.30;;;;;;;;;;4994168;28;20084;-73
2021/03/29 12:30:12;;;;;;;5.55;1.40;;;;;;;;;;4993718;28;20105;-74
2021/03/29 12:32:38;;;;;;;4.20;1.55;;;;;;;;;;4980059;28;20038;-73
2021/03/29 12:35:05;;;;;;;5.45;1.40;;;;;;;;;;4974262;28;20086;-73
2021/03/29 12:37:33;;;;;;;4.13;1.30;;;;;;;;;;4974132;28;20023;-72
2021/03/29 12:40:13;;;;;;;4.28;1.52;;;;;;;;;;4974075;28;20015;-72
2021/03/29 12:42:49;;;;;;;4.53;1.35;;;;;;;;;;4973929;28;20507;-72
2021/03/29 12:45:20;;;;;;;4.63;1.23;;;;;;;;;;4978874;28;20026;-71
2021/03/29 12:47:46;;;;;;;4.35;1.60;;;;;;;;;;4993617;28;20026;-71
2021/03/29 12:50:14;;;;;;;3.40;1.23;;;;;;;;;;4993520;28;20022;-68
2021/03/29 12:52:44;;;;;;;12.55;1.42;;;;;;;;;;4975744;28;20113;-70
2021/03/29 12:55:14;;;;;;;4.28;1.55;;;;;;;;;;5009873;28;20029;-71
2021/03/29 12:57:40;;;;;;;4.47;1.42;;;;;;;;;;5009822;28;20026;-70
2021/03/29 13:00:11;;;;;;;7.40;1.35;;;;;;;;;;5011939;28;20064;-71
2021/03/29 13:02:37;;;;;;;5.05;1.25;;;;;;;;;;5003891;28;20038;-70
2021/03/29 13:05:13;;;;;;;5.50;1.75;;;;;;;;;;4993072;28;20084;-71
2021/03/29 13:07:46;;;;;;;2.72;1.27;;;;;;;;;;4992926;28;20476;-70
2021/03/29 13:13:00;;;;;;;3.22;1.25;;;;;;;;;;4981363;28;20031;-71
2021/03/29 13:15:27;;;;;;;4.80;1.40;;;;;;;;;;4993072;28;20033;-70
2021/03/29 13:17:53;;;;;;;5.28;1.45;;;;;;;;;;4992776;28;20507;-70
2021/03/29 13:20:20;;;;;;;4.03;1.40;;;;;;;;;;4992518;28;20030;-71
2021/03/29 13:22:47;;;;;;;5.75;1.25;;;;;;;;;;4992748;28;20042;-70
2021/03/29 13:25:14;;;;;;;3.65;1.60;;;;;;;;;;4992667;28;20053;-70
2021/03/29 13:27:40;;;;;;;6.57;1.73;;;;;;;;;;4975040;28;20088;-70
2021/03/29 13:30:08;;;;;;;5.07;1.30;;;;;;;;;;4992559;28;20027;-70
2021/03/29 13:32:34;;;;;;;6.32;1.58;;;;;;;;;;4973065;28;20022;-71
2021/03/29 13:35:00;;;;;;;4.30;1.25;;;;;;;;;;4973230;28;20034;-71
2021/03/29 13:37:26;;;;;;;3.60;1.30;;;;;;;;;;4987557;28;20026;-70
2021/03/29 13:39:53;;;;;;;4.30;1.30;;;;;;;;;;4992578;28;20054;-70
2021/03/29 13:42:20;;;;;;;3.40;1.42;;;;;;;;;;4992322;28;20121;-71
2021/03/29 13:44:46;;;;;;;5.22;1.63;;;;;;;;;;4974864;28;20746;-70
2021/03/29 13:47:13;;;;;;;3.35;1.48;;;;;;;;;;4992192;28;20049;-70
2021/03/29 13:49:40;;;;;;;5.13;1.60;;;;;;;;;;4974260;28;20030;-71
2021/03/29 13:52:07;;;;;;;5.18;1.40;;;;;;;;;;4992171;28;20522;-70
2021/03/29 13:54:34;;;;;;;10.18;1.63;;;;;;;;;;4992328;28;20037;-70
2021/03/29 13:57:00;;;;;;;6.93;1.60;;;;;;;;;;4991964;28;20029;-70
2021/03/29 13:59:26;;;;;;;4.82;1.83;;;;;;;;;;4992098;28;20499;-70
2021/03/29 14:01:53;;;;;;;28.73;2.38;;;;;;;;;;4992085;28;20034;-74
2021/03/29 14:04:19;;;;;;;11.07;1.70;;;;;;;;;;4991918;28;20046;-72
2021/03/29 14:06:45;;;;;;;6.50;1.60;;;;;;;;;;4991953;28;20142;-70
2021/03/29 14:09:16;;;;;;;10.77;2.03;;;;;;;;;;4991900;28;20019;-71
2021/03/29 14:11:42;;;;;;;7.45;1.70;;;;;;;;;;4992186;28;20100;-70
2021/03/29 14:14:09;;;;;;;10.77;1.90;;;;;;;;;;4991713;28;20015;-70
2021/03/29 14:16:36;;;;;;;8.27;1.60;;;;;;;;;;4991750;28;20084;-68
2021/03/29 14:19:04;;;;;;;5.45;1.73;;;;;;;;;;4992004;28;20014;-72
2021/03/29 14:21:30;;;;;;;9.95;2.50;;;;;;;;;;4991907;28;20380;-70
2021/03/29 14:23:56;;;;;;;8.02;2.00;;;;;;;;;;4991675;28;20109;-72
2021/03/29 14:26:23;;;;;;;7.07;1.55;;;;;;;;;;4991804;28;20030;-74
2021/03/29 14:28:49;;;;;;;12.00;2.15;;;;;;;;;;4974368;28;20022;-69
2021/03/29 14:31:15;;;;;;;7.97;1.65;;;;;;;;;;4982681;28;20026;-74
2021/03/29 14:33:43;;;;;;;4.68;1.50;;;;;;;;;;4971160;28;20031;-74
2021/03/29 14:46:15;;;;;;;9.85;2.00;;;;;;;;;;4991611;28;20030;-71
2021/03/29 14:48:41;;;;;;;5.75;1.55;;;;;;;;;;4974265;28;20022;-78
2021/03/29 14:51:08;;;;;;;5.38;1.63;;;;;;;;;;4974222;28;20491;-69
2021/03/29 14:53:34;;;;;;;6.55;1.67;;;;;;;;;;4969783;28;20559;-68
2021/03/29 14:56:00;;;;;;;5.53;1.70;;;;;;;;;;4975945;28;20018;-70
2021/03/29 14:58:26;;;;;;;5.53;1.50;;;;;;;;;;4973565;28;20034;-71
2021/03/29 15:00:52;;;;;;;4.55;1.50;;;;;;;;;;4974670;28;20054;-71
2021/03/29 15:03:21;;;;;;;6.20;1.40;;;;;;;;;;4995274;28;20026;-73
2021/03/29 15:06:35;;;;;;;4.40;1.80;;;;;;;;;;4995387;28;20448;-72
2021/03/29 15:08:37;;;;;;;4.68;1.80;;;;;;;;;;4992037;28;20033;-70